Time;durP1;ratioP1;P1;durP2;ratioP2;P2;SDS_P1;SDS_P2;PMS_P1;PMS_P2;Temp;Humidity;BMP_temperature;BMP_pressure;BME280_temperature;BME280_humidity;BME280_pressure;Samples;Min_cycle;Max_cycle;Signal;HPM_P1;HPM_P2
2022/04/26 03:38:30;;;;;;;;;;;;;;;;;;5087002;28;19945;-78
2022/04/26 03:40:57;;;;;;;;;;;;;;;;;;5083903;28;19936;-78
2022/04/26 03:43:23;;;;;;;;;;;;;;;;;;5103225;28;19998;-78
2022/04/26 03:45:49;;;;;;;;;;;;;;;;;;5102252;28;19951;-78
2022/04/26 03:48:15;;;;;;;;;;;;;;;;;;5102496;28;20014;-78
2022/04/26 03:50:42;;;;;;;;;;;;;;;;;;5102651;28;19924;-78
2022/04/26 03:53:08;;;;;;;;;;;;;;;;;;5097405;28;19946;-78
2022/04/26 03:55:34;;;;;;;;;;;;;;;;;;5100228;28;19977;-77
2022/04/26 03:58:00;;;;;;;;;;;;;;;;;;5103508;28;19974;-78
2022/04/26 04:00:27;;;;;;;;;;;;;;;;;;5086007;28;19931;-78
2022/04/26 04:02:53;;;;;;;;;;;;;;;;;;5091836;28;19930;-78
2022/04/26 04:05:19;;;;;;;;;;;;;;;;;;5082489;28;19924;-78
2022/04/26 04:07:45;;;;;;;;;;;;;;;;;;5084541;28;19986;-78
2022/04/26 04:10:11;;;;;;;;;;;;;;;;;;5082274;28;20433;-78
2022/04/26 04:12:38;;;;;;;;;;;;;;;;;;5088655;28;19928;-77
2022/04/26 04:15:04;;;;;;;;;;;;;;;;;;5093220;28;19928;-77
2022/04/26 04:17:30;;;;;;;;;;;;;;;;;;5093292;28;19928;-77
2022/04/26 04:19:56;;;;;;;;;;;;;;;;;;5093710;28;20084;-78
2022/04/26 04:22:22;;;;;;;;;;;;;;;;;;5091883;28;19973;-78
2022/04/26 04:24:48;;;;;;;;;;;;;;;;;;5090874;28;19924;-77
2022/04/26 04:27:14;;;;;;;;;;;;;;;;;;5093655;28;19969;-77
2022/04/26 04:29:41;;;;;;;;;;;;;;;;;;5092936;28;19978;-78
2022/04/26 04:32:07;;;;;;;;;;;;;;;;;;5084744;28;19935;-77
2022/04/26 04:34:33;;;;;;;;;;;;;;;;;;5072523;28;19990;-77
2022/04/26 04:36:59;;;;;;;;;;;;;;;;;;5088779;28;19973;-77
2022/04/26 04:39:27;;;;;;;;;;;;;;;;;;5093579;28;19974;-77
2022/04/26 04:41:53;;;;;;;;;;;;;;;;;;5086451;28;19977;-77
2022/04/26 04:44:20;;;;;;;;;;;;;;;;;;5093115;28;19924;-77
2022/04/26 04:46:46;;;;;;;;;;;;;;;;;;5089691;28;19924;-77
2022/04/26 04:49:12;;;;;;;;;;;;;;;;;;5093338;28;19946;-77
2022/04/26 04:51:38;;;;;;;;;;;;;;;;;;5092004;28;19924;-77
2022/04/26 04:54:05;;;;;;;;;;;;;;;;;;5092725;28;19932;-76
2022/04/26 04:56:31;;;;;;;;;;;;;;;;;;5092390;28;19931;-76
2022/04/26 04:58:57;;;;;;;;;;;;;;;;;;5082911;28;19958;-76
2022/04/26 05:01:23;;;;;;;;;;;;;;;;;;5075483;28;19928;-76
2022/04/26 05:03:49;;;;;;;;;;;;;;;;;;5092406;28;19928;-76
2022/04/26 05:06:15;;;;;;;;;;;;;;;;;;5093139;28;19924;-76
2022/04/26 05:08:41;;;;;;;;;;;;;;;;;;5085502;28;19924;-76
2022/04/26 05:11:08;;;;;;;;;;;;;;;;;;5080331;28;20333;-76
2022/04/26 05:13:34;;;;;;;;;;;;;;;;;;5092806;28;19924;-76
2022/04/26 05:16:00;;;;;;;;;;;;;;;;;;5088551;28;19970;-76
2022/04/26 05:18:26;;;;;;;;;;;;;;;;;;5072841;28;20430;-76
2022/04/26 05:20:52;;;;;;;;;;;;;;;;;;5086036;28;19924;-77
2022/04/26 05:26:02;;;;;;;;;;;;;;;;;;5072813;28;20287;-77
2022/04/26 05:28:28;;;;;;;;;;;;;;;;;;5072814;28;19925;-77
2022/04/26 05:30:54;;;;;;;;;;;;;;;;;;5079943;28;19970;-77
2022/04/26 05:33:21;;;;;;;;;;;;;;;;;;5076976;28;19924;-76
2022/04/26 05:35:47;;;;;;;;;;;;;;;;;;5078828;28;20018;-77
2022/04/26 05:38:13;;;;;;;;;;;;;;;;;;5078395;28;19925;-78
2022/04/26 05:40:40;;;;;;;;;;;;;;;;;;5075230;28;19946;-81
2022/04/26 05:43:06;;;;;;;;;;;;;;;;;;5073805;28;19925;-77
2022/04/26 05:45:32;;;;;;;;;;;;;;;;;;5092348;28;20438;-77
2022/04/26 05:47:58;;;;;;;;;;;;;;;;;;5093815;28;19928;-77
2022/04/26 05:50:24;;;;;;;;;;;;;;;;;;5093694;28;19924;-77
2022/04/26 05:52:50;;;;;;;;;;;;;;;;;;5093534;28;19976;-78
2022/04/26 05:55:16;;;;;;;;;;;;;;;;;;5093897;28;20387;-77
2022/04/26 05:57:43;;;;;;;;;;;;;;;;;;5094117;28;19973;-78
2022/04/26 06:00:09;;;;;;;;;;;;;;;;;;5095080;28;19930;-77
2022/04/26 06:02:35;;;;;;;;;;;;;;;;;;5095760;28;20383;-78
2022/04/26 06:05:01;;;;;;;;;;;;;;;;;;5096298;28;19931;-78
2022/04/26 06:07:28;;;;;;;;;;;;;;;;;;5089341;28;19947;-77
2022/04/26 06:09:54;;;;;;;;;;;;;;;;;;5094793;28;19932;-78
2022/04/26 06:12:20;;;;;;;;;;;;;;;;;;5077198;28;19931;-77
2022/04/26 06:14:46;;;;;;;;;;;;;;;;;;5081027;28;19970;-80
2022/04/26 06:17:12;;;;;;;;;;;;;;;;;;5102341;28;19930;-80
2022/04/26 06:19:38;;;;;;;;;;;;;;;;;;5102186;28;20312;-79
2022/04/26 06:22:04;;;;;;;;;;;;;;;;;;5100042;28;19925;-79
2022/04/26 06:24:30;;;;;;;;;;;;;;;;;;5099321;28;19924;-79
2022/04/26 06:26:56;;;;;;;;;;;;;;;;;;5092568;28;19924;-79
2022/04/26 06:29:22;;;;;;;;;;;;;;;;;;5093995;28;19954;-78
2022/04/26 06:31:49;;;;;;;;;;;;;;;;;;5097175;28;19927;-75
2022/04/26 06:34:15;;;;;;;;;;;;;;;;;;5093984;28;20290;-76
2022/04/26 06:36:41;;;;;;;;;;;;;;;;;;5090676;28;19924;-76
2022/04/26 06:39:07;;;;;;;;;;;;;;;;;;5089558;28;20354;-76
2022/04/26 06:41:33;;;;;;;;;;;;;;;;;;5084122;28;19931;-76
2022/04/26 06:43:59;;;;;;;;;;;;;;;;;;5091467;28;20492;-76
2022/04/26 06:46:25;;;;;;;;;;;;;;;;;;5082236;28;19969;-76
2022/04/26 06:48:52;;;;;;;;;;;;;;;;;;5094649;28;19977;-76
2022/04/26 06:51:18;;;;;;;;;;;;;;;;;;5094748;28;19932;-75
2022/04/26 06:53:44;;;;;;;;;;;;;;;;;;5092440;28;19927;-75
2022/04/26 06:56:10;;;;;;;;;;;;;;;;;;5093403;28;19977;-77
2022/04/26 06:58:36;;;;;;;;;;;;;;;;;;5093724;28;19977;-73
2022/04/26 07:01:02;;;;;;;;;;;;;;;;;;5079214;22;19925;-74
2022/04/26 07:03:28;;;;;;;;;;;;;;;;;;5049243;28;20296;-74
2022/04/26 07:31:25;;;;;;;;;;;;;;;;;;5044513;28;20008;-82
2022/04/26 08:38:41;;;;;;;;;;;;;;;;;;5098894;27;19943;-79
2022/04/26 08:41:07;;;;;;;;;;;;;;;;;;5113829;28;19935;-78
2022/04/26 08:43:33;;;;;;;;;;;;;;;;;;5111973;28;20413;-78
2022/04/26 08:46:01;;;;;;;;;;;;;;;;;;5111696;28;19924;-79
2022/04/26 08:51:10;;;;;;;;;;;;;;;;;;5107794;28;90279;-81
2022/04/26 08:54:37;;;;;;;;;;;;;;;;;;5116826;27;19920;-78
2022/04/26 08:57:03;;;;;;;;;;;;;;;;;;5095617;27;19981;-77
2022/04/26 08:59:31;;;;;;;;;;;;;;;;;;5111751;28;19930;-79
2022/04/26 09:01:58;;;;;;;;;;;;;;;;;;5116010;28;20364;-81
2022/04/26 09:04:24;;;;;;;;;;;;;;;;;;5117868;28;19947;-81
2022/04/26 09:09:35;;;;;;;;;;;;;;;;;;5126449;28;19973;-82
2022/04/26 09:12:02;;;;;;;;;;;;;;;;;;5129508;28;20031;-81
2022/04/26 09:17:17;;;;;;;;;;;;;;;;;;5122111;28;19919;-81
2022/04/26 09:33:26;;;;;;;;;;;;;;;;;;5125866;27;19924;-81
2022/04/26 09:35:53;;;;;;;;;;;;;;;;;;5122022;28;19924;-81
2022/04/26 10:35:36;;;;;;;;;;;;;;;;;;5098971;28;19915;-79
2022/04/26 10:38:03;;;;;;;;;;;;;;;;;;5083552;23;20019;-80
2022/04/26 10:40:30;;;;;;;;;;;;;;;;;;5047230;28;19956;-79
2022/04/26 10:42:56;;;;;;;;;;;;;;;;;;5054355;28;19968;-78
2022/04/26 10:45:22;;;;;;;;;;;;;;;;;;5054922;28;19987;-77
2022/04/26 10:47:48;;;;;;;;;;;;;;;;;;5053861;28;19924;-78
2022/04/26 10:50:14;;;;;;;;;;;;;;;;;;5054405;28;20301;-77
2022/04/26 10:52:44;;;;;;;;;;;;;;;;;;5037571;28;19983;-78
2022/04/26 10:55:10;;;;;;;;;;;;;;;;;;5034885;28;19975;-77
2022/04/26 10:57:36;;;;;;;;;;;;;;;;;;5034826;28;19929;-77
2022/04/26 11:00:02;;;;;;;;;;;;;;;;;;5034732;28;19987;-77
2022/04/26 11:02:28;;;;;;;;;;;;;;;;;;5021519;28;19926;-78
2022/04/26 11:04:54;;;;;;;;;;;;;;;;;;5014886;28;19980;-77
2022/04/26 11:07:25;;;;;;;;;;;;;;;;;;5027522;28;19971;-77
2022/04/26 11:09:51;;;;;;;;;;;;;;;;;;5033097;28;19925;-78
2022/04/26 11:12:17;;;;;;;;;;;;;;;;;;5033671;28;19932;-79
2022/04/26 11:14:43;;;;;;;;;;;;;;;;;;5025766;28;19936;-77
2022/04/26 11:17:09;;;;;;;;;;;;;;;;;;5043061;28;19925;-77
2022/04/26 11:19:36;;;;;;;;;;;;;;;;;;5040901;28;19929;-77
2022/04/26 11:22:02;;;;;;;;;;;;;;;;;;5046688;28;19932;-79
2022/04/26 11:29:56;;;;;;;;;;;;;;;;;;5053986;28;19995;-79
2022/04/26 11:32:22;;;;;;;;;;;;;;;;;;5035501;28;20336;-79
2022/04/26 11:34:48;;;;;;;;;;;;;;;;;;5033665;28;19925;-79
2022/04/26 11:37:23;;;;;;;;;;;;;;;;;;5045872;28;20364;-81
2022/04/26 11:39:49;;;;;;;;;;;;;;;;;;5049512;28;19924;-77
2022/04/26 11:42:16;;;;;;;;;;;;;;;;;;5053805;28;19925;-78
2022/04/26 11:44:42;;;;;;;;;;;;;;;;;;5033156;28;20044;-78
2022/04/26 11:47:13;;;;;;;;;;;;;;;;;;5033093;28;19926;-78
2022/04/26 11:49:39;;;;;;;;;;;;;;;;;;5033908;28;19979;-77
2022/04/26 11:52:05;;;;;;;;;;;;;;;;;;5033707;28;19932;-77
2022/04/26 11:54:31;;;;;;;;;;;;;;;;;;5047810;28;19947;-77
2022/04/26 11:56:57;;;;;;;;;;;;;;;;;;5053235;28;19925;-77
2022/04/26 11:59:25;;;;;;;;;;;;;;;;;;5038922;28;19925;-77
2022/04/26 12:01:51;;;;;;;;;;;;;;;;;;5033832;28;19925;-77
2022/04/26 12:04:17;;;;;;;;;;;;;;;;;;5036169;28;19925;-77
2022/04/26 12:06:44;;;;;;;;;;;;;;;;;;5052908;28;19974;-77
2022/04/26 12:09:12;;;;;;;;;;;;;;;;;;5034238;28;19925;-77
2022/04/26 12:11:40;;;;;;;;;;;;;;;;;;5033392;28;19979;-78
2022/04/26 12:14:07;;;;;;;;;;;;;;;;;;5050634;28;19978;-77
2022/04/26 12:16:33;;;;;;;;;;;;;;;;;;5052416;28;19929;-80
2022/04/26 12:19:00;;;;;;;;;;;;;;;;;;5052877;28;20410;-79
2022/04/26 12:21:27;;;;;;;;;;;;;;;;;;5037915;28;19933;-79
2022/04/26 12:23:53;;;;;;;;;;;;;;;;;;5042440;28;19951;-78
2022/04/26 12:26:19;;;;;;;;;;;;;;;;;;5033202;28;19925;-79
2022/04/26 12:28:45;;;;;;;;;;;;;;;;;;5034442;28;19925;-78
2022/04/26 12:31:11;;;;;;;;;;;;;;;;;;5033837;28;20278;-79
2022/04/26 12:33:37;;;;;;;;;;;;;;;;;;5033089;28;19925;-77
2022/04/26 12:36:04;;;;;;;;;;;;;;;;;;5032763;28;20384;-79
2022/04/26 12:38:30;;;;;;;;;;;;;;;;;;5021550;28;19925;-79
2022/04/26 12:40:56;;;;;;;;;;;;;;;;;;5019511;28;19972;-79
2022/04/26 12:43:22;;;;;;;;;;;;;;;;;;5035814;28;19925;-79
2022/04/26 12:45:48;;;;;;;;;;;;;;;;;;5035101;28;19925;-79
2022/04/26 12:50:58;;;;;;;;;;;;;;;;;;5032090;28;19921;-79
2022/04/26 12:53:24;;;;;;;;;;;;;;;;;;5032956;28;19925;-79
2022/04/26 12:55:51;;;;;;;;;;;;;;;;;;5033165;28;19933;-78
2022/04/26 12:58:17;;;;;;;;;;;;;;;;;;5040916;28;19966;-78
2022/04/26 13:00:43;;;;;;;;;;;;;;;;;;5047833;28;19995;-78
2022/04/26 13:03:09;;;;;;;;;;;;;;;;;;5050343;22;19909;-80
2022/04/26 13:05:35;;;;;;;;;;;;;;;;;;5031422;28;19948;-80
2022/04/26 13:08:02;;;;;;;;;;;;;;;;;;5036397;28;19979;-81
2022/04/26 13:10:28;;;;;;;;;;;;;;;;;;5055599;28;19925;-81
2022/04/26 13:12:54;;;;;;;;;;;;;;;;;;5055539;28;19925;-81
2022/04/26 13:15:23;;;;;;;;;;;;;;;;;;5055780;28;19986;-81
2022/04/26 13:17:49;;;;;;;;;;;;;;;;;;5055901;28;19961;-81
2022/04/26 13:20:15;;;;;;;;;;;;;;;;;;5040713;28;20011;-81
2022/04/26 13:22:41;;;;;;;;;;;;;;;;;;5035649;28;20385;-81
2022/04/26 13:25:07;;;;;;;;;;;;;;;;;;5036768;28;20372;-81
2022/04/26 13:27:33;;;;;;;;;;;;;;;;;;5040372;28;19925;-81
2022/04/26 13:30:00;;;;;;;;;;;;;;;;;;5037013;28;20377;-81
2022/04/26 13:32:26;;;;;;;;;;;;;;;;;;5036176;28;19952;-77
2022/04/26 13:34:52;;;;;;;;;;;;;;;;;;5035355;28;20285;-81
2022/04/26 13:37:19;;;;;;;;;;;;;;;;;;5032490;28;19925;-79
2022/04/26 13:39:45;;;;;;;;;;;;;;;;;;5017404;28;19925;-80
2022/04/26 13:42:12;;;;;;;;;;;;;;;;;;5020580;28;19925;-81
2022/04/26 13:44:38;;;;;;;;;;;;;;;;;;5019978;28;19981;-81
2022/04/26 13:47:05;;;;;;;;;;;;;;;;;;5020360;28;20052;-81
2022/04/26 13:49:31;;;;;;;;;;;;;;;;;;5033575;28;19925;-81
2022/04/26 13:51:57;;;;;;;;;;;;;;;;;;5039463;28;19925;-81
2022/04/26 13:54:27;;;;;;;;;;;;;;;;;;5039025;28;19979;-81
2022/04/26 13:56:53;;;;;;;;;;;;;;;;;;5039847;28;19949;-80
2022/04/26 13:59:19;;;;;;;;;;;;;;;;;;5039447;28;19991;-79
2022/04/26 14:01:45;;;;;;;;;;;;;;;;;;5039810;28;19971;-79
2022/04/26 14:04:11;;;;;;;;;;;;;;;;;;5026668;28;19925;-80
2022/04/26 14:06:38;;;;;;;;;;;;;;;;;;5019823;28;19925;-80
2022/04/26 14:09:04;;;;;;;;;;;;;;;;;;5019795;28;19925;-81
2022/04/26 14:11:30;;;;;;;;;;;;;;;;;;5018557;28;20384;-80
2022/04/26 14:22:07;;;;;;;;;;;;;;;;;;5019187;28;19999;-81
2022/04/26 14:24:34;;;;;;;;;;;;;;;;;;5019130;28;19926;-80
2022/04/26 14:27:01;;;;;;;;;;;;;;;;;;5019611;28;20147;-81
2022/04/26 14:29:27;;;;;;;;;;;;;;;;;;5019545;28;19932;-81
2022/04/26 14:31:53;;;;;;;;;;;;;;;;;;5019710;28;19937;-81
2022/04/26 14:34:19;;;;;;;;;;;;;;;;;;5034497;28;19925;-81
2022/04/26 14:36:46;;;;;;;;;;;;;;;;;;5039284;28;19932;-81
2022/04/26 14:39:13;;;;;;;;;;;;;;;;;;5039353;28;20035;-80
2022/04/26 14:41:40;;;;;;;;;;;;;;;;;;5030769;28;19968;-81
2022/04/26 14:44:06;;;;;;;;;;;;;;;;;;5018509;28;19926;-83
2022/04/26 14:46:32;;;;;;;;;;;;;;;;;;5018845;28;20023;-81
2022/04/26 14:48:59;;;;;;;;;;;;;;;;;;5019249;28;19971;-79
2022/04/26 14:51:25;;;;;;;;;;;;;;;;;;5019133;28;20328;-80
2022/04/26 14:53:51;;;;;;;;;;;;;;;;;;5018437;28;19925;-81
2022/04/26 14:56:17;;;;;;;;;;;;;;;;;;5019337;28;19980;-81
2022/04/26 14:58:43;;;;;;;;;;;;;;;;;;5018440;28;19929;-81
2022/04/26 15:01:10;;;;;;;;;;;;;;;;;;5018438;28;19926;-81
2022/04/26 15:03:36;;;;;;;;;;;;;;;;;;5018361;28;20388;-81
2022/04/26 15:06:02;;;;;;;;;;;;;;;;;;5019134;28;19925;-81
2022/04/26 15:11:12;;;;;;;;;;;;;;;;;;5018335;28;19960;-81
2022/04/26 15:16:42;;;;;;;;;;;;;;;;;;5018620;28;19920;-81
2022/04/26 15:19:09;;;;;;;;;;;;;;;;;;5018326;28;19926;-81
2022/04/26 15:21:35;;;;;;;;;;;;;;;;;;5018341;28;19929;-80
2022/04/26 15:24:01;;;;;;;;;;;;;;;;;;5018153;28;19926;-81
2022/04/26 15:26:27;;;;;;;;;;;;;;;;;;5018547;28;19984;-81
2022/04/26 15:28:53;;;;;;;;;;;;;;;;;;5018603;28;19929;-81
2022/04/26 15:31:19;;;;;;;;;;;;;;;;;;5018448;28;19925;-81
2022/04/26 15:33:46;;;;;;;;;;;;;;;;;;5018052;28;19932;-81
2022/04/26 15:36:12;;;;;;;;;;;;;;;;;;5026592;28;19932;-81
2022/04/26 15:38:39;;;;;;;;;;;;;;;;;;5038564;28;19925;-81
2022/04/26 15:41:06;;;;;;;;;;;;;;;;;;5037309;28;19980;-80
2022/04/26 15:43:32;;;;;;;;;;;;;;;;;;5036939;28;19931;-81
2022/04/26 15:45:58;;;;;;;;;;;;;;;;;;5037963;28;19931;-80
2022/04/26 15:48:24;;;;;;;;;;;;;;;;;;5038028;28;19925;-81
2022/04/26 15:50:51;;;;;;;;;;;;;;;;;;5031143;28;19932;-81
2022/04/26 15:53:17;;;;;;;;;;;;;;;;;;5017749;28;19925;-81
2022/04/26 15:55:43;;;;;;;;;;;;;;;;;;5017766;28;19926;-81
2022/04/26 15:58:09;;;;;;;;;;;;;;;;;;5017917;28;20049;-81
2022/04/26 16:00:35;;;;;;;;;;;;;;;;;;5017451;28;19952;-80
2022/04/26 16:03:02;;;;;;;;;;;;;;;;;;5016607;28;19929;-80
2022/04/26 16:05:29;;;;;;;;;;;;;;;;;;5021681;28;20408;-82
2022/04/26 16:07:55;;;;;;;;;;;;;;;;;;5039213;28;19929;-82
2022/04/26 16:21:16;;;;;;;;;;;;;;;;;;5019091;28;19921;-82
2022/04/26 16:23:43;;;;;;;;;;;;;;;;;;5019380;28;20336;-82
2022/04/26 16:26:11;;;;;;;;;;;;;;;;;;5019427;28;20460;-82
2022/04/26 16:28:37;;;;;;;;;;;;;;;;;;5021044;28;19926;-81
2022/04/26 16:31:03;;;;;;;;;;;;;;;;;;5022454;28;19925;-83
2022/04/26 16:33:29;;;;;;;;;;;;;;;;;;5020834;28;19932;-81
2022/04/26 16:35:55;;;;;;;;;;;;;;;;;;5019016;28;19929;-82
2022/04/26 16:38:22;;;;;;;;;;;;;;;;;;5018911;28;19925;-82
2022/04/26 16:40:48;;;;;;;;;;;;;;;;;;5018811;28;19932;-82
2022/04/26 16:43:16;;;;;;;;;;;;;;;;;;5018441;28;19930;-81
2022/04/26 16:45:42;;;;;;;;;;;;;;;;;;5018896;28;19965;-82
2022/04/26 16:48:08;;;;;;;;;;;;;;;;;;5040160;28;20326;-81
2022/04/26 16:50:34;;;;;;;;;;;;;;;;;;5057989;28;19928;-81
2022/04/26 16:53:01;;;;;;;;;;;;;;;;;;5057953;28;19924;-81
2022/04/26 16:55:27;;;;;;;;;;;;;;;;;;5057901;28;19925;-80
2022/04/26 16:57:53;;;;;;;;;;;;;;;;;;5058386;28;19925;-81
2022/04/26 17:00:19;;;;;;;;;;;;;;;;;;5057994;28;20330;-81
2022/04/26 17:02:46;;;;;;;;;;;;;;;;;;5042241;28;20392;-81
2022/04/26 17:05:12;;;;;;;;;;;;;;;;;;5016750;28;19925;-79
2022/04/26 17:07:38;;;;;;;;;;;;;;;;;;5017003;28;19936;-80
2022/04/26 17:10:05;;;;;;;;;;;;;;;;;;5016900;28;19929;-81
2022/04/26 17:12:31;;;;;;;;;;;;;;;;;;5015792;28;20351;-81
2022/04/26 17:14:57;;;;;;;;;;;;;;;;;;5017482;28;19925;-81
2022/04/26 17:17:25;;;;;;;;;;;;;;;;;;5021291;28;20285;-82
2022/04/26 17:19:51;;;;;;;;;;;;;;;;;;5022996;28;19925;-82
2022/04/26 17:22:17;;;;;;;;;;;;;;;;;;5022246;28;20296;-82
2022/04/26 17:27:27;;;;;;;;;;;;;;;;;;5028201;28;19981;-79
2022/04/26 17:29:54;;;;;;;;;;;;;;;;;;5024247;28;19929;-81
2022/04/26 17:32:21;;;;;;;;;;;;;;;;;;5033079;28;20372;-80
2022/04/26 17:34:47;;;;;;;;;;;;;;;;;;5040844;28;19932;-80
2022/04/26 17:37:13;;;;;;;;;;;;;;;;;;5034523;28;19952;-81
2022/04/26 17:39:39;;;;;;;;;;;;;;;;;;5022302;28;19925;-80
2022/04/26 17:42:06;;;;;;;;;;;;;;;;;;5023127;28;19940;-80
2022/04/26 17:44:33;;;;;;;;;;;;;;;;;;5022038;28;20329;-80
2022/04/26 17:47:00;;;;;;;;;;;;;;;;;;5038027;28;19926;-81
2022/04/26 17:49:27;;;;;;;;;;;;;;;;;;5041494;28;19925;-80
2022/04/26 17:51:53;;;;;;;;;;;;;;;;;;5037231;28;19925;-80
2022/04/26 17:57:02;;;;;;;;;;;;;;;;;;5031830;28;19924;-81
2022/04/26 17:59:29;;;;;;;;;;;;;;;;;;5023085;28;20376;-81
2022/04/26 18:01:55;;;;;;;;;;;;;;;;;;5020995;28;19941;-81
2022/04/26 18:04:21;;;;;;;;;;;;;;;;;;5038320;28;19929;-81
2022/04/26 18:06:47;;;;;;;;;;;;;;;;;;5040158;28;19925;-79
2022/04/26 18:09:13;;;;;;;;;;;;;;;;;;5056181;28;19929;-80
2022/04/26 18:11:39;;;;;;;;;;;;;;;;;;5037693;28;20373;-79
2022/04/26 18:14:05;;;;;;;;;;;;;;;;;;5038806;28;19925;-79
2022/04/26 18:16:32;;;;;;;;;;;;;;;;;;5020979;28;20328;-79
2022/04/26 18:19:03;;;;;;;;;;;;;;;;;;5019092;28;19925;-79
2022/04/26 18:21:29;;;;;;;;;;;;;;;;;;5037322;28;19929;-79
2022/04/26 18:24:14;;;;;;;;;;;;;;;;;;5045860;28;19979;-79
2022/04/26 18:26:41;;;;;;;;;;;;;;;;;;5052872;28;19948;-79
2022/04/26 18:29:09;;;;;;;;;;;;;;;;;;5052314;28;19932;-79
2022/04/26 18:31:37;;;;;;;;;;;;;;;;;;5053331;28;19929;-79
2022/04/26 18:34:03;;;;;;;;;;;;;;;;;;5047506;28;19949;-79
2022/04/26 18:36:30;;;;;;;;;;;;;;;;;;5036097;28;19925;-81
2022/04/26 18:38:56;;;;;;;;;;;;;;;;;;5038902;28;20384;-81
2022/04/26 18:41:22;;;;;;;;;;;;;;;;;;5039244;28;19925;-80
2022/04/26 18:43:48;;;;;;;;;;;;;;;;;;5035827;28;20454;-79
2022/04/26 18:46:15;;;;;;;;;;;;;;;;;;5026593;28;19925;-79
2022/04/26 18:48:41;;;;;;;;;;;;;;;;;;5046498;28;19925;-79
2022/04/26 18:51:07;;;;;;;;;;;;;;;;;;5026281;28;19952;-81
2022/04/26 18:53:33;;;;;;;;;;;;;;;;;;5033072;28;19925;-81
2022/04/26 18:56:00;;;;;;;;;;;;;;;;;;5035355;28;19947;-81
2022/04/26 18:58:27;;;;;;;;;;;;;;;;;;5040504;28;19933;-81
2022/04/26 19:00:54;;;;;;;;;;;;;;;;;;5039494;28;19960;-80
2022/04/26 19:03:20;;;;;;;;;;;;;;;;;;5026784;28;19931;-81
2022/04/26 19:05:46;;;;;;;;;;;;;;;;;;5078754;22;19931;-80
2022/04/26 19:08:13;;;;;;;;;;;;;;;;;;5076361;28;19924;-82
